createdAt,value
2019-02-27T00:02:11.115Z,5.55
2019-02-27T00:04:57.058Z,5.57
2019-02-27T00:07:42.780Z,5.51
2019-02-27T00:10:28.153Z,5.65
2019-02-27T00:13:13.508Z,5.83
2019-02-27T00:15:59.278Z,5.71
2019-02-27T00:18:44.976Z,5.71
2019-02-27T00:21:30.409Z,5.64
2019-02-27T00:24:16.057Z,5.64
2019-02-27T00:27:01.366Z,5.43
2019-02-27T00:29:47.386Z,5.36
2019-02-27T00:32:32.942Z,5.36
2019-02-27T00:35:18.841Z,5.32
2019-02-27T00:38:04.786Z,5.12
2019-02-27T00:40:51.224Z,4.99
2019-02-27T00:43:36.859Z,4.99
2019-02-27T00:46:22.505Z,4.91
2019-02-27T00:49:08.178Z,5.04
2019-02-27T00:51:53.871Z,5.04
2019-02-27T00:54:39.383Z,5.08
2019-02-27T00:57:25.153Z,5.29
2019-02-27T01:00:13.578Z,5.19
2019-02-27T01:02:59.637Z,5.18
2019-02-27T01:05:45.021Z,5.24
2019-02-27T01:08:30.525Z,5.29
2019-02-27T01:11:18.226Z,5.30
2019-02-27T01:14:04.132Z,5.20
2019-02-27T01:16:50.871Z,5.10
2019-02-27T01:19:39.255Z,5.06
2019-02-27T01:22:23.952Z,4.89
2019-02-27T01:25:09.655Z,4.99
2019-02-27T01:27:55.191Z,4.99
2019-02-27T01:30:40.751Z,4.89
2019-02-27T01:33:26.063Z,4.89
2019-02-27T01:36:11.878Z,4.61
2019-02-27T01:38:57.210Z,4.43
2019-02-27T01:41:42.963Z,4.59
2019-02-27T01:44:28.500Z,4.62
2019-02-27T01:47:14.287Z,4.80
2019-02-27T01:49:59.900Z,4.60
2019-02-27T01:52:45.517Z,4.32
2019-02-27T01:55:30.912Z,4.26
2019-02-27T01:58:16.275Z,4.39
2019-02-27T02:01:01.830Z,4.39
2019-02-27T02:03:48.148Z,4.31
2019-02-27T02:06:33.549Z,4.66
2019-02-27T02:09:38.198Z,4.54
2019-02-27T02:12:27.200Z,4.34
2019-02-27T02:15:40.709Z,4.54
2019-02-27T02:19:11.308Z,4.55
2019-02-27T02:22:25.315Z,4.54
2019-02-27T02:25:56.095Z,4.22
2019-02-27T02:29:35.634Z,4.23
2019-02-27T02:32:53.197Z,4.28
2019-02-27T02:35:57.161Z,4.07
2019-02-27T02:39:30.483Z,4.04
2019-02-27T02:43:08.776Z,4.01
2019-02-27T02:46:08.059Z,4.16
2019-02-27T02:49:47.354Z,4.09
2019-02-27T02:52:56.517Z,3.96
2019-02-27T02:56:44.325Z,3.94
2019-02-27T03:00:23.159Z,3.66
2019-02-27T03:03:42.328Z,3.70
2019-02-27T03:06:59.649Z,3.67
2019-02-27T03:10:28.489Z,3.56
2019-02-27T03:13:41.952Z,3.59
2019-02-27T03:16:55.409Z,3.61
2019-02-27T03:20:16.805Z,3.44
2019-02-27T03:23:50.845Z,3.79
2019-02-27T03:26:57.048Z,3.62
2019-02-27T03:30:05.057Z,3.61
2019-02-27T03:33:27.655Z,3.59
2019-02-27T03:36:57.957Z,3.50
2019-02-27T03:40:28.483Z,3.63
2019-02-27T03:43:45.717Z,4.06
2019-02-27T03:46:46.147Z,3.49
2019-02-27T03:50:20.846Z,3.31
2019-02-27T03:53:43.205Z,3.40
2019-02-27T03:56:53.550Z,3.65
2019-02-27T04:00:21.042Z,3.67
2019-02-27T04:03:30.845Z,4.01
2019-02-27T04:06:43.635Z,3.92
2019-02-27T04:09:29.008Z,3.91
2019-02-27T04:12:16.421Z,3.96
2019-02-27T04:15:02.764Z,4.17
2019-02-27T04:17:51.903Z,4.28
2019-02-27T04:20:34.936Z,4.31
2019-02-27T04:23:20.252Z,4.37
2019-02-27T04:26:06.648Z,4.30
2019-02-27T04:28:52.458Z,4.24
2019-02-27T04:31:38.363Z,4.24
2019-02-27T04:34:23.562Z,4.26
2019-02-27T04:37:09.136Z,4.30
2019-02-27T04:39:54.631Z,4.25
2019-02-27T04:42:40.096Z,4.23
2019-02-27T04:45:25.658Z,4.17
2019-02-27T04:48:11.587Z,4.07
2019-02-27T04:50:57.286Z,4.05
2019-02-27T04:53:42.908Z,4.15
2019-02-27T04:56:28.653Z,4.34
2019-02-27T04:59:18.412Z,4.54
2019-02-27T05:02:01.679Z,4.46
2019-02-27T05:04:49.316Z,4.48
2019-02-27T05:07:34.672Z,4.13
2019-02-27T05:10:20.227Z,4.44
2019-02-27T05:13:05.896Z,4.61
2019-02-27T05:15:51.218Z,4.48
2019-02-27T05:18:36.896Z,4.06
2019-02-27T05:21:22.327Z,3.87
2019-02-27T05:24:08.567Z,3.35
2019-02-27T05:26:54.900Z,3.44
2019-02-27T05:29:40.554Z,3.34
2019-02-27T05:32:28.332Z,3.16
2019-02-27T05:35:13.771Z,3.24
2019-02-27T05:37:59.255Z,3.17
2019-02-27T05:40:44.923Z,3.20
2019-02-27T05:43:30.588Z,3.29
2019-02-27T05:46:16.166Z,3.29
2019-02-27T05:49:01.521Z,3.29
2019-02-27T05:51:47.088Z,3.51
2019-02-27T05:54:32.919Z,3.50
2019-02-27T05:57:22.911Z,3.70
2019-02-27T06:00:09.908Z,3.69
2019-02-27T06:02:56.770Z,3.80
2019-02-27T06:05:49.384Z,4.03
2019-02-27T06:08:29.767Z,4.11
2019-02-27T06:11:15.237Z,3.30
2019-02-27T06:14:00.735Z,3.34
2019-02-27T06:16:46.031Z,3.22
2019-02-27T06:19:33.703Z,3.00
2019-02-27T06:22:19.248Z,3.29
2019-02-27T06:25:05.472Z,3.76
2019-02-27T06:27:50.918Z,3.80
2019-02-27T06:30:36.463Z,3.35
2019-02-27T06:33:21.937Z,3.50
2019-02-27T06:36:07.795Z,3.37
2019-02-27T06:38:54.383Z,3.17
2019-02-27T06:41:40.227Z,3.45
2019-02-27T06:44:25.967Z,3.61
2019-02-27T06:47:12.312Z,3.63
2019-02-27T06:49:58.008Z,3.44
2019-02-27T06:52:43.438Z,3.69
2019-02-27T06:55:29.088Z,4.32
2019-02-27T06:58:15.426Z,4.90
2019-02-27T07:01:01.151Z,5.22
2019-02-27T07:03:47.526Z,6.26
2019-02-27T07:06:32.900Z,7.29
2019-02-27T07:09:18.276Z,8.16
2019-02-27T07:12:03.641Z,7.17
2019-02-27T07:14:48.976Z,8.31
2019-02-27T07:17:34.522Z,10.46
2019-02-27T07:20:23.814Z,9.73
2019-02-27T07:23:07.576Z,9.94
2019-02-27T07:25:52.908Z,9.84
2019-02-27T07:28:38.591Z,10.19
2019-02-27T07:31:24.292Z,9.95
2019-02-27T07:34:14.201Z,9.82
2019-02-27T07:36:57.317Z,10.06
2019-02-27T07:39:42.868Z,10.83
2019-02-27T07:42:31.900Z,11.89
2019-02-27T07:45:16.512Z,12.69
2019-02-27T07:48:02.209Z,12.49
2019-02-27T07:50:49.145Z,14.29
2019-02-27T07:53:35.215Z,15.23
2019-02-27T07:56:20.616Z,14.79
2019-02-27T07:59:05.942Z,13.86
2019-02-27T08:01:51.408Z,14.97
2019-02-27T08:04:36.688Z,14.67
2019-02-27T08:07:22.559Z,14.68
2019-02-27T08:10:11.135Z,13.16
2019-02-27T08:12:56.803Z,13.11
2019-02-27T08:15:42.646Z,13.80
2019-02-27T08:18:30.454Z,14.48
2019-02-27T08:21:15.788Z,14.39
2019-02-27T08:24:06.518Z,14.61
2019-02-27T08:26:49.381Z,15.49
2019-02-27T08:29:34.680Z,15.80
2019-02-27T08:32:20.352Z,15.21
2019-02-27T08:35:05.652Z,15.47
2019-02-27T08:37:51.030Z,16.22
2019-02-27T08:40:36.956Z,15.32
2019-02-27T08:43:23.384Z,15.46
2019-02-27T08:46:08.803Z,15.71
2019-02-27T08:48:54.412Z,15.88
2019-02-27T08:51:41.926Z,16.49
2019-02-27T08:54:27.273Z,16.95
2019-02-27T08:57:12.933Z,17.38
2019-02-27T08:59:58.652Z,17.90
2019-02-27T09:02:44.085Z,19.18
2019-02-27T09:05:29.736Z,18.20
2019-02-27T09:08:15.133Z,19.72
2019-02-27T09:11:05.524Z,18.96
2019-02-27T09:13:49.077Z,18.18
2019-02-27T09:16:35.045Z,18.79
2019-02-27T09:19:20.856Z,17.71
2019-02-27T09:22:06.595Z,16.99
2019-02-27T09:24:52.379Z,17.98
2019-02-27T09:27:37.776Z,19.32
2019-02-27T09:30:28.802Z,18.59
2019-02-27T09:33:11.643Z,19.00
2019-02-27T09:35:56.968Z,19.18
2019-02-27T09:38:42.640Z,18.68
2019-02-27T09:41:28.058Z,19.34
2019-02-27T09:44:14.289Z,19.56
2019-02-27T09:47:00.509Z,21.66
2019-02-27T09:49:46.105Z,20.98
2019-02-27T09:52:31.621Z,22.20
2019-02-27T09:55:20.183Z,20.70
2019-02-27T09:58:10.117Z,21.39
2019-02-27T10:00:59.215Z,20.19
2019-02-27T10:03:46.493Z,20.52
2019-02-27T10:06:31.876Z,21.44
2019-02-27T10:09:18.961Z,21.49
2019-02-27T10:12:04.825Z,22.88
2019-02-27T10:14:50.936Z,23.69
2019-02-27T10:17:36.985Z,21.98
2019-02-27T10:20:22.977Z,22.68
2019-02-27T10:23:08.289Z,22.67
2019-02-27T10:25:53.977Z,20.77
2019-02-27T10:28:39.865Z,20.68
2019-02-27T10:31:25.913Z,20.50
2019-02-27T10:34:14.595Z,22.60
2019-02-27T10:37:01.818Z,21.79
2019-02-27T10:39:48.289Z,21.99
2019-02-27T10:42:33.997Z,20.91
2019-02-27T10:45:20.405Z,20.13
2019-02-27T10:48:05.801Z,19.96
2019-02-27T10:50:51.597Z,20.07
2019-02-27T10:53:37.565Z,19.79
2019-02-27T10:56:24.281Z,21.07
2019-02-27T10:59:10.857Z,20.17
2019-02-27T11:01:56.397Z,20.51
2019-02-27T11:04:41.973Z,21.07
2019-02-27T11:07:27.605Z,20.66
2019-02-27T11:10:13.330Z,20.21
2019-02-27T11:12:58.753Z,20.53
2019-02-27T11:15:45.569Z,22.09
2019-02-27T11:18:31.521Z,20.47
2019-02-27T11:21:16.885Z,20.60
2019-02-27T11:24:03.041Z,21.06
2019-02-27T11:26:48.759Z,21.48
2019-02-27T11:29:34.061Z,21.57
2019-02-27T11:32:22.891Z,21.60
2019-02-27T11:35:07.211Z,21.87
2019-02-27T11:37:53.779Z,21.37
2019-02-27T11:40:42.637Z,21.54
2019-02-27T11:43:28.138Z,21.53
2019-02-27T11:46:14.002Z,21.71
2019-02-27T11:49:03.063Z,21.78
2019-02-27T11:51:47.866Z,20.36
2019-02-27T11:54:33.273Z,22.31
2019-02-27T11:57:18.957Z,21.85
2019-02-27T12:00:05.742Z,22.16
2019-02-27T12:02:51.437Z,21.70
2019-02-27T12:05:37.588Z,20.21
2019-02-27T12:08:25.773Z,21.76
2019-02-27T12:11:13.274Z,21.95
2019-02-27T12:13:58.209Z,21.39
2019-02-27T12:16:44.466Z,22.05
2019-02-27T12:19:29.818Z,22.15
2019-02-27T12:22:15.618Z,21.20
2019-02-27T12:25:00.937Z,22.29
2019-02-27T12:27:49.631Z,21.85
2019-02-27T12:30:37.488Z,22.15
2019-02-27T12:33:22.688Z,21.44
2019-02-27T12:36:09.054Z,22.46
2019-02-27T12:38:56.111Z,21.40
2019-02-27T12:41:41.979Z,22.22
2019-02-27T12:44:27.473Z,22.02
2019-02-27T12:47:13.259Z,23.07
2019-02-27T12:49:59.663Z,22.35
2019-02-27T12:52:47.927Z,23.30
2019-02-27T12:55:36.256Z,22.05
2019-02-27T12:58:21.100Z,22.58
2019-02-27T13:01:07.848Z,23.48
2019-02-27T13:03:53.640Z,23.15
2019-02-27T13:06:39.568Z,23.77
2019-02-27T13:09:25.343Z,23.48
2019-02-27T13:12:11.471Z,23.20
2019-02-27T13:14:57.283Z,24.15
2019-02-27T13:17:45.520Z,21.39
2019-02-27T13:20:31.516Z,23.14
2019-02-27T13:23:17.248Z,22.66
2019-02-27T13:26:03.283Z,23.47
2019-02-27T13:28:49.702Z,23.37
2019-02-27T13:31:35.388Z,21.52
2019-02-27T13:34:21.415Z,23.26
2019-02-27T13:37:10.069Z,21.88
2019-02-27T13:39:57.307Z,22.86
2019-02-27T13:42:44.896Z,22.82
2019-02-27T13:45:31.112Z,23.98
2019-02-27T13:48:17.176Z,24.84
2019-02-27T13:51:03.120Z,24.53
2019-02-27T13:53:49.124Z,24.63
2019-02-27T13:56:34.956Z,22.68
2019-02-27T13:59:20.564Z,21.73
2019-02-27T14:02:06.443Z,22.05
2019-02-27T14:04:53.823Z,23.30
2019-02-27T14:07:39.878Z,22.49
2019-02-27T14:10:26.669Z,22.98
2019-02-27T14:13:12.692Z,24.54
2019-02-27T14:16:00.755Z,25.37
2019-02-27T14:18:49.788Z,26.42
2019-02-27T14:21:35.491Z,22.97
2019-02-27T14:24:21.889Z,24.87
2019-02-27T14:27:07.639Z,24.70
2019-02-27T14:29:54.172Z,24.05
2019-02-27T14:32:39.700Z,24.48
2019-02-27T14:35:25.319Z,24.36
2019-02-27T14:38:11.076Z,22.81
2019-02-27T14:40:56.716Z,23.44
2019-02-27T14:43:42.436Z,25.18
2019-02-27T14:46:27.854Z,23.40
2019-02-27T14:49:14.026Z,25.05
2019-02-27T14:51:59.704Z,23.52
2019-02-27T14:54:44.912Z,22.98
2019-02-27T14:57:30.784Z,24.36
2019-02-27T15:00:20.655Z,22.85
2019-02-27T15:03:06.627Z,23.01
2019-02-27T15:05:52.767Z,21.98
2019-02-27T15:08:41.001Z,20.99
2019-02-27T15:11:26.603Z,19.86
2019-02-27T15:14:11.997Z,20.32
2019-02-27T15:16:57.309Z,19.98
2019-02-27T15:19:43.876Z,19.95
2019-02-27T15:22:29.882Z,19.90
2019-02-27T15:25:15.949Z,19.26
2019-02-27T15:28:01.715Z,19.11
2019-02-27T15:30:47.514Z,19.31
2019-02-27T15:33:35.900Z,19.31
2019-02-27T15:36:21.597Z,19.37
2019-02-27T15:39:08.173Z,19.01
2019-02-27T15:41:53.533Z,18.97
2019-02-27T15:44:38.977Z,18.99
2019-02-27T15:47:26.990Z,18.92
2019-02-27T15:50:15.221Z,18.82
2019-02-27T15:53:02.865Z,18.82
2019-02-27T15:55:48.825Z,18.52
2019-02-27T15:58:34.175Z,18.48
2019-02-27T16:01:19.597Z,18.39
2019-02-27T16:04:05.262Z,18.49
2019-02-27T16:06:51.270Z,18.45
2019-02-27T16:09:37.064Z,18.29
2019-02-27T16:12:25.453Z,18.24
2019-02-27T16:15:10.225Z,18.31
2019-02-27T16:17:56.002Z,18.41
2019-02-27T16:20:41.576Z,18.18
2019-02-27T16:23:27.265Z,18.12
2019-02-27T16:26:14.233Z,17.92
2019-02-27T16:29:00.257Z,17.74
2019-02-27T16:31:45.820Z,17.75
2019-02-27T16:34:33.100Z,17.71
2019-02-27T16:37:22.831Z,17.62
2019-02-27T16:40:06.986Z,17.40
2019-02-27T16:42:53.053Z,16.98
2019-02-27T16:45:38.833Z,17.10
2019-02-27T16:48:24.513Z,16.98
2019-02-27T16:51:10.040Z,16.81
2019-02-27T16:53:57.298Z,16.42
2019-02-27T16:56:46.225Z,15.98
2019-02-27T16:59:30.971Z,15.82
2019-02-27T17:02:16.986Z,15.67
2019-02-27T17:05:05.792Z,15.62
2019-02-27T17:07:49.890Z,15.10
2019-02-27T17:10:35.607Z,14.91
2019-02-27T17:13:21.103Z,14.86
2019-02-27T17:16:07.104Z,14.18
2019-02-27T17:18:54.494Z,14.22
2019-02-27T17:21:39.900Z,14.03
2019-02-27T17:24:25.251Z,14.10
2019-02-27T17:27:13.069Z,13.97
2019-02-27T17:30:00.083Z,14.09
2019-02-27T17:32:46.398Z,14.16
2019-02-27T17:35:32.098Z,14.03
2019-02-27T17:38:17.709Z,13.89
2019-02-27T17:41:03.110Z,13.97
2019-02-27T17:43:51.624Z,14.02
2019-02-27T17:46:36.039Z,14.02
2019-02-27T17:49:22.221Z,14.08
2019-02-27T17:52:11.498Z,13.95
2019-02-27T17:54:57.253Z,13.03
2019-02-27T17:57:46.173Z,13.31
2019-02-27T18:00:37.037Z,13.44
2019-02-27T18:03:22.764Z,13.38
2019-02-27T18:06:08.364Z,13.48
2019-02-27T18:08:54.000Z,13.33
2019-02-27T18:11:39.305Z,13.31
2019-02-27T18:14:26.140Z,13.27
2019-02-27T18:17:11.851Z,13.37
2019-02-27T18:19:57.220Z,13.03
2019-02-27T18:22:45.928Z,12.81
2019-02-27T18:25:30.744Z,12.67
2019-02-27T18:28:16.136Z,13.22
2019-02-27T18:31:03.980Z,13.68
2019-02-27T18:33:50.331Z,14.23
2019-02-27T18:36:42.580Z,14.66
2019-02-27T18:39:25.777Z,14.73
2019-02-27T18:42:11.637Z,14.68
2019-02-27T18:44:57.321Z,14.63
2019-02-27T18:47:43.193Z,14.53
2019-02-27T18:50:28.737Z,14.44
2019-02-27T18:53:14.379Z,14.50
2019-02-27T18:56:01.973Z,14.44
2019-02-27T18:58:47.389Z,14.35
2019-02-27T19:01:33.605Z,14.36
2019-02-27T19:04:19.317Z,14.35
2019-02-27T19:07:04.842Z,14.20
2019-02-27T19:09:50.457Z,14.05
2019-02-27T19:12:35.833Z,14.01
2019-02-27T19:15:22.102Z,13.94
2019-02-27T19:18:11.434Z,13.92
2019-02-27T19:20:59.147Z,13.83
2019-02-27T19:23:44.645Z,13.94
2019-02-27T19:26:30.329Z,13.88
2019-02-27T19:29:16.132Z,13.93
2019-02-27T19:32:03.193Z,13.83
2019-02-27T19:34:48.886Z,13.93
2019-02-27T19:37:36.423Z,14.06
2019-02-27T19:40:23.651Z,13.98
2019-02-27T19:43:12.060Z,13.98
2019-02-27T19:46:00.110Z,13.84
2019-02-27T19:48:45.657Z,13.65
2019-02-27T19:51:31.203Z,13.11
2019-02-27T19:54:18.570Z,13.08
2019-02-27T19:57:07.922Z,13.06
2019-02-27T19:59:51.586Z,12.74
2019-02-27T20:02:37.579Z,12.20
2019-02-27T20:05:23.319Z,12.12
2019-02-27T20:08:10.798Z,12.28
2019-02-27T20:10:56.292Z,11.96
2019-02-27T20:13:41.661Z,11.68
2019-02-27T20:16:27.146Z,11.47
2019-02-27T20:19:21.994Z,11.24
2019-02-27T20:22:00.670Z,10.97
2019-02-27T20:24:46.098Z,10.99
2019-02-27T20:27:31.684Z,10.97
2019-02-27T20:30:17.869Z,11.22
2019-02-27T20:33:03.240Z,11.24
2019-02-27T20:35:52.265Z,11.12
2019-02-27T20:38:37.270Z,11.15
2019-02-27T20:41:22.814Z,11.22
2019-02-27T20:44:08.408Z,11.46
2019-02-27T20:46:54.145Z,11.30
2019-02-27T20:49:39.438Z,11.21
2019-02-27T20:52:25.356Z,11.08
2019-02-27T20:55:11.456Z,10.92
2019-02-27T20:57:56.798Z,10.51
2019-02-27T21:00:42.478Z,10.26
2019-02-27T21:03:28.072Z,10.12
2019-02-27T21:06:13.948Z,10.18
2019-02-27T21:08:59.671Z,10.09
2019-02-27T21:11:45.186Z,9.90
2019-02-27T21:14:30.590Z,9.65
2019-02-27T21:17:16.496Z,9.76
2019-02-27T21:20:03.819Z,9.65
2019-02-27T21:22:49.243Z,9.55
2019-02-27T21:25:35.065Z,9.48
2019-02-27T21:28:21.270Z,9.52
2019-02-27T21:31:07.215Z,9.38
2019-02-27T21:33:53.642Z,9.36
2019-02-27T21:36:39.250Z,9.40
2019-02-27T21:39:27.723Z,9.56
2019-02-27T21:42:18.607Z,9.65
2019-02-27T21:45:03.687Z,9.48
2019-02-27T21:47:51.313Z,9.42
2019-02-27T21:50:39.587Z,9.44
2019-02-27T21:53:22.907Z,9.64
2019-02-27T21:56:08.545Z,10.08
2019-02-27T21:58:55.945Z,10.15
2019-02-27T22:01:41.347Z,10.16
2019-02-27T22:04:26.786Z,10.03
2019-02-27T22:07:13.444Z,9.87
2019-02-27T22:09:59.343Z,9.84
2019-02-27T22:12:45.471Z,9.82
2019-02-27T22:15:32.424Z,9.80
2019-02-27T22:18:18.023Z,9.68
2019-02-27T22:21:03.415Z,9.71
2019-02-27T22:23:49.071Z,9.76
2019-02-27T22:26:37.513Z,9.67
2019-02-27T22:29:21.983Z,9.60
2019-02-27T22:32:08.041Z,9.61
2019-02-27T22:34:53.287Z,9.60
2019-02-27T22:37:38.841Z,9.66
2019-02-27T22:40:24.491Z,9.76
2019-02-27T22:43:10.087Z,9.82
2019-02-27T22:45:56.084Z,9.79
2019-02-27T22:48:42.167Z,9.66
2019-02-27T22:51:28.049Z,9.65
2019-02-27T22:54:13.406Z,9.68
2019-02-27T22:56:59.000Z,9.56
2019-02-27T22:59:44.531Z,9.78
2019-02-27T23:02:29.935Z,9.78
2019-02-27T23:05:16.182Z,9.62
2019-02-27T23:08:01.859Z,9.41
2019-02-27T23:10:47.311Z,9.31
2019-02-27T23:13:33.294Z,9.32
2019-02-27T23:16:19.270Z,9.11
2019-02-27T23:19:05.196Z,8.85
2019-02-27T23:21:50.849Z,8.81
2019-02-27T23:24:36.316Z,8.83
2019-02-27T23:27:21.784Z,8.89
2019-02-27T23:30:07.927Z,8.83
2019-02-27T23:32:53.347Z,8.83
2019-02-27T23:35:38.731Z,8.66
2019-02-27T23:38:24.396Z,8.63
2019-02-27T23:41:10.109Z,8.48
2019-02-27T23:43:55.500Z,8.41
2019-02-27T23:46:48.773Z,8.36
2019-02-27T23:49:28.752Z,8.39
2019-02-27T23:52:14.184Z,8.41
2019-02-27T23:54:59.984Z,8.25
2019-02-27T23:57:47.152Z,8.24
